createdAt,value
2022-10-11T00:02:15.051Z,13.57
2022-10-11T00:04:58.077Z,13.67
2022-10-11T00:07:41.075Z,13.80
2022-10-11T00:10:24.276Z,13.75
2022-10-11T00:13:08.141Z,13.76
2022-10-11T00:15:51.211Z,13.65
2022-10-11T00:18:35.632Z,13.73
2022-10-11T00:21:19.837Z,13.72
2022-10-11T00:24:02.967Z,13.75
2022-10-11T00:26:47.120Z,13.74
2022-10-11T00:29:30.237Z,13.61
2022-10-11T00:32:13.267Z,13.61
2022-10-11T00:34:59.776Z,13.59
2022-10-11T00:37:42.847Z,13.54
2022-10-11T00:40:26.013Z,13.39
2022-10-11T00:43:17.327Z,13.42
2022-10-11T00:46:06.849Z,13.47
2022-10-11T00:48:54.940Z,13.53
2022-10-11T00:51:44.604Z,13.55
2022-10-11T00:54:30.026Z,13.50
2022-10-11T00:57:16.428Z,13.35
2022-10-11T01:00:00.190Z,13.22
2022-10-11T01:02:44.461Z,13.36
2022-10-11T01:05:30.191Z,13.27
2022-10-11T01:08:15.221Z,13.20
2022-10-11T01:10:58.711Z,13.11
2022-10-11T01:13:53.638Z,12.98
2022-10-11T01:16:43.635Z,12.84
2022-10-11T01:19:49.892Z,12.73
2022-10-11T01:22:59.226Z,12.82
2022-10-11T01:25:56.580Z,12.83
2022-10-11T01:28:47.720Z,12.56
2022-10-11T01:31:40.319Z,12.82
2022-10-11T01:34:28.375Z,12.73
2022-10-11T01:37:18.485Z,12.79
2022-10-11T01:40:07.146Z,12.82
2022-10-11T01:42:51.015Z,12.65
2022-10-11T01:45:35.911Z,12.65
2022-10-11T01:48:20.400Z,12.58
2022-10-11T01:51:04.571Z,12.62
2022-10-11T01:54:05.053Z,12.62
2022-10-11T01:57:13.424Z,12.55
2022-10-11T02:00:03.485Z,12.48
2022-10-11T02:03:03.163Z,12.38
2022-10-11T02:05:52.965Z,12.46
2022-10-11T02:08:46.070Z,12.44
2022-10-11T02:11:31.910Z,12.49
2022-10-11T02:14:19.979Z,12.49
2022-10-11T02:17:08.361Z,12.56
2022-10-11T02:19:54.458Z,12.55
2022-10-11T02:22:42.136Z,12.53
2022-10-11T02:25:27.629Z,12.45
2022-10-11T02:28:15.271Z,12.40
2022-10-11T02:31:01.255Z,12.42
2022-10-11T02:33:46.679Z,12.38
2022-10-11T02:36:37.674Z,12.35
2022-10-11T02:39:26.877Z,12.33
2022-10-11T02:42:15.973Z,12.44
2022-10-11T02:45:02.317Z,12.43
2022-10-11T02:47:46.099Z,12.43
2022-10-11T02:50:29.425Z,12.56
2022-10-11T02:53:12.437Z,12.56
2022-10-11T02:55:57.197Z,12.67
2022-10-11T02:58:40.214Z,12.61
2022-10-11T03:01:23.280Z,12.53
2022-10-11T03:04:06.589Z,12.49
2022-10-11T03:06:49.641Z,12.53
2022-10-11T03:09:32.899Z,12.56
2022-10-11T03:12:17.302Z,12.55
2022-10-11T03:15:00.327Z,12.58
2022-10-11T03:17:43.347Z,12.65
2022-10-11T03:20:26.651Z,12.73
2022-10-11T03:23:09.735Z,12.63
2022-10-11T03:25:53.148Z,12.58
2022-10-11T03:28:37.602Z,12.54
2022-10-11T03:31:21.822Z,12.53
2022-10-11T03:34:04.867Z,12.60
2022-10-11T03:36:48.162Z,12.54
2022-10-11T03:39:31.115Z,12.60
2022-10-11T03:42:14.756Z,12.53
2022-10-11T03:44:59.905Z,12.55
2022-10-11T03:47:42.931Z,12.61
2022-10-11T03:50:25.953Z,12.66
2022-10-11T03:53:09.417Z,12.55
2022-10-11T03:55:54.513Z,12.57
2022-10-11T03:58:37.587Z,12.57
2022-10-11T04:01:22.027Z,12.57
2022-10-11T04:04:05.421Z,12.59
2022-10-11T04:06:48.441Z,12.61
2022-10-11T04:09:31.690Z,12.67
2022-10-11T04:12:14.699Z,12.58
2022-10-11T04:14:57.717Z,12.70
2022-10-11T04:17:42.383Z,12.62
2022-10-11T04:20:25.362Z,12.62
2022-10-11T04:23:08.407Z,12.60
2022-10-11T04:25:51.441Z,12.60
2022-10-11T04:28:35.497Z,12.60
2022-10-11T04:31:18.555Z,12.64
2022-10-11T04:34:02.952Z,12.65
2022-10-11T04:36:49.777Z,12.58
2022-10-11T04:39:33.083Z,12.63
2022-10-11T04:42:16.437Z,12.66
2022-10-11T04:44:59.397Z,12.72
2022-10-11T04:47:42.410Z,12.74
2022-10-11T04:50:26.843Z,12.74
2022-10-11T04:53:09.880Z,12.85
2022-10-11T04:56:01.413Z,12.82
2022-10-11T04:58:44.662Z,12.74
2022-10-11T05:01:27.738Z,12.75
2022-10-11T05:04:10.726Z,12.81
2022-10-11T05:06:55.576Z,12.94
2022-10-11T05:09:38.602Z,13.14
2022-10-11T05:12:21.633Z,13.17
2022-10-11T05:15:05.293Z,13.20
2022-10-11T05:17:48.326Z,13.20
2022-10-11T05:20:31.323Z,13.24
2022-10-11T05:23:15.883Z,13.28
2022-10-11T05:25:59.115Z,13.38
2022-10-11T05:28:42.243Z,13.46
2022-10-11T05:31:25.587Z,13.38
2022-10-11T05:34:08.714Z,13.61
2022-10-11T05:36:51.706Z,13.73
2022-10-11T05:39:36.104Z,13.86
2022-10-11T05:42:19.233Z,13.98
2022-10-11T05:45:02.188Z,13.94
2022-10-11T05:47:45.319Z,14.11
2022-10-11T05:50:28.343Z,14.36
2022-10-11T05:53:11.417Z,14.48
2022-10-11T05:55:56.169Z,14.49
2022-10-11T05:58:40.885Z,14.61
2022-10-11T06:01:26.246Z,14.71
2022-10-11T06:04:09.945Z,14.75
2022-10-11T06:06:52.917Z,14.78
2022-10-11T06:09:35.928Z,14.75
2022-10-11T06:12:21.708Z,14.72
2022-10-11T06:15:05.191Z,14.65
2022-10-11T06:17:48.285Z,14.43
2022-10-11T06:20:31.274Z,14.46
2022-10-11T06:23:14.347Z,14.32
2022-10-11T06:25:58.586Z,14.09
2022-10-11T06:28:43.137Z,14.10
2022-10-11T06:31:26.311Z,14.03
2022-10-11T06:34:09.621Z,13.91
2022-10-11T06:36:52.752Z,14.01
2022-10-11T06:39:35.969Z,13.90
2022-10-11T06:42:18.918Z,13.95
2022-10-11T06:45:03.329Z,13.93
2022-10-11T06:47:46.335Z,13.88
2022-10-11T06:50:54.269Z,13.91
2022-10-11T06:53:32.313Z,13.97
2022-10-11T06:56:15.317Z,14.13
2022-10-11T06:59:00.034Z,14.24
2022-10-11T07:01:44.474Z,14.30
2022-10-11T07:04:28.896Z,14.35
2022-10-11T07:07:14.480Z,14.46
2022-10-11T07:09:57.387Z,14.52
2022-10-11T07:12:40.425Z,14.59
2022-10-11T07:15:23.466Z,14.52
2022-10-11T07:18:08.287Z,14.35
2022-10-11T07:20:51.300Z,14.70
2022-10-11T07:23:34.675Z,14.67
2022-10-11T07:26:18.559Z,14.68
2022-10-11T07:29:01.810Z,14.70
2022-10-11T07:31:45.217Z,14.78
2022-10-11T07:34:29.648Z,14.92
2022-10-11T07:37:13.659Z,15.06
2022-10-11T07:39:56.625Z,15.17
2022-10-11T07:42:39.789Z,15.36
2022-10-11T07:45:22.861Z,15.39
2022-10-11T07:48:06.443Z,15.50
2022-10-11T07:50:51.025Z,15.55
2022-10-11T07:53:38.842Z,15.75
2022-10-11T07:56:24.654Z,15.78
2022-10-11T07:59:08.247Z,15.94
2022-10-11T08:01:51.337Z,16.19
2022-10-11T08:04:34.321Z,16.33
2022-10-11T08:07:18.776Z,16.52
2022-10-11T08:10:01.865Z,16.68
2022-10-11T08:12:47.996Z,16.80
2022-10-11T08:15:31.128Z,16.59
2022-10-11T08:18:14.115Z,16.87
2022-10-11T08:20:57.110Z,16.78
2022-10-11T08:23:42.062Z,16.95
2022-10-11T08:26:25.291Z,16.78
2022-10-11T08:29:08.357Z,16.62
2022-10-11T08:31:51.327Z,16.44
2022-10-11T08:34:34.441Z,16.48
2022-10-11T08:37:17.414Z,16.43
2022-10-11T08:40:03.455Z,16.94
2022-10-11T08:42:50.128Z,17.18
2022-10-11T08:45:40.449Z,17.08
2022-10-11T08:48:32.669Z,17.05
2022-10-11T08:51:21.925Z,17.08
2022-10-11T08:54:08.159Z,17.43
2022-10-11T08:56:52.802Z,17.64
2022-10-11T08:59:42.359Z,18.03
2022-10-11T09:02:55.591Z,18.28
2022-10-11T09:05:44.823Z,18.42
2022-10-11T09:08:38.291Z,18.31
2022-10-11T09:11:32.190Z,18.24
2022-10-11T09:14:40.623Z,18.66
2022-10-11T09:17:40.594Z,18.83
2022-10-11T09:20:48.760Z,18.65
2022-10-11T09:23:46.547Z,18.53
2022-10-11T09:26:35.667Z,18.24
2022-10-11T09:29:27.666Z,17.92
2022-10-11T09:32:16.081Z,18.16
2022-10-11T09:35:02.833Z,18.26
2022-10-11T09:37:53.848Z,18.85
2022-10-11T09:40:49.597Z,19.62
2022-10-11T09:43:32.663Z,20.41
2022-10-11T09:46:24.447Z,21.19
2022-10-11T09:49:12.586Z,21.71
2022-10-11T09:51:59.131Z,21.65
2022-10-11T09:54:43.684Z,21.40
2022-10-11T09:57:28.716Z,21.71
2022-10-11T10:00:22.242Z,21.97
2022-10-11T10:03:06.750Z,22.20
2022-10-11T10:06:07.031Z,22.18
2022-10-11T10:08:50.779Z,22.10
2022-10-11T10:11:37.787Z,22.16
2022-10-11T10:14:25.048Z,22.15
2022-10-11T10:17:18.962Z,21.58
2022-10-11T10:20:05.705Z,21.43
2022-10-11T10:22:48.863Z,21.22
2022-10-11T10:25:42.299Z,21.50
2022-10-11T10:28:28.582Z,21.49
2022-10-11T10:31:23.210Z,21.67
2022-10-11T10:34:13.699Z,22.20
2022-10-11T10:37:03.692Z,22.46
2022-10-11T10:39:52.898Z,23.34
2022-10-11T10:42:36.007Z,23.70
2022-10-11T10:45:21.877Z,24.09
2022-10-11T10:48:19.594Z,24.21
2022-10-11T10:51:10.687Z,25.16
2022-10-11T10:54:03.799Z,26.77
2022-10-11T10:56:53.220Z,26.68
2022-10-11T10:59:52.820Z,26.07
2022-10-11T11:02:45.626Z,27.69
2022-10-11T11:05:40.110Z,28.00
2022-10-11T11:08:39.115Z,30.19
2022-10-11T11:11:37.851Z,30.74
2022-10-11T11:14:35.135Z,30.11
2022-10-11T11:17:29.886Z,29.57
2022-10-11T11:20:28.121Z,30.06
2022-10-11T11:23:23.447Z,29.92
2022-10-11T11:26:15.052Z,28.03
2022-10-11T11:29:10.652Z,26.27
2022-10-11T11:32:11.999Z,25.61
2022-10-11T11:35:01.253Z,25.27
2022-10-11T11:37:48.753Z,24.70
2022-10-11T11:40:36.128Z,24.58
2022-10-11T11:43:24.776Z,24.42
2022-10-11T11:46:17.366Z,24.51
2022-10-11T11:49:08.609Z,23.80
2022-10-11T11:51:56.161Z,23.54
2022-10-11T11:54:49.815Z,23.09
2022-10-11T11:57:47.112Z,22.69
2022-10-11T12:00:36.005Z,22.29
2022-10-11T12:03:25.271Z,22.23
2022-10-11T12:06:22.076Z,21.71
2022-10-11T12:09:09.262Z,21.14
2022-10-11T12:11:56.758Z,21.30
2022-10-11T12:14:41.925Z,21.18
2022-10-11T12:17:25.196Z,20.62
2022-10-11T12:20:16.222Z,20.76
2022-10-11T12:23:01.381Z,20.93
2022-10-11T12:25:45.564Z,20.58
2022-10-11T12:29:03.873Z,20.26
2022-10-11T12:31:49.130Z,19.60
2022-10-11T12:34:37.959Z,19.14
2022-10-11T12:37:51.002Z,18.96
2022-10-11T12:40:36.431Z,18.71
2022-10-11T12:43:30.120Z,18.86
2022-10-11T12:46:41.268Z,18.88
2022-10-11T12:49:47.033Z,18.98
2022-10-11T12:52:38.891Z,18.81
2022-10-11T12:55:31.437Z,18.61
2022-10-11T12:58:28.523Z,18.60
2022-10-11T13:01:32.185Z,18.48
2022-10-11T13:04:20.233Z,18.40
2022-10-11T13:07:07.622Z,18.31
2022-10-11T13:09:55.549Z,18.47
2022-10-11T13:12:44.220Z,18.14
2022-10-11T13:15:28.061Z,18.19
2022-10-11T13:18:15.163Z,18.06
2022-10-11T13:20:58.194Z,17.92
2022-10-11T13:23:41.272Z,17.76
2022-10-11T13:26:25.813Z,17.77
2022-10-11T13:29:17.792Z,17.76
2022-10-11T13:32:02.192Z,17.77
2022-10-11T13:34:48.162Z,17.70
2022-10-11T13:37:37.882Z,17.72
2022-10-11T13:40:23.346Z,17.82
2022-10-11T13:43:07.612Z,17.85
2022-10-11T13:45:53.178Z,17.88
2022-10-11T13:48:41.575Z,18.02
2022-10-11T13:51:32.285Z,18.04
2022-10-11T13:54:15.326Z,18.19
2022-10-11T13:56:58.373Z,18.33
2022-10-11T13:59:44.670Z,18.44
2022-10-11T14:02:30.582Z,18.51
2022-10-11T14:05:24.771Z,18.46
2022-10-11T14:08:18.724Z,18.48
2022-10-11T14:11:06.369Z,18.57
2022-10-11T14:13:50.127Z,18.36
2022-10-11T14:16:33.254Z,18.35
2022-10-11T14:19:21.296Z,18.26
2022-10-11T14:22:06.136Z,18.12
2022-10-11T14:24:49.841Z,17.90
2022-10-11T14:27:33.091Z,17.81
2022-10-11T14:30:27.448Z,17.71
2022-10-11T14:33:12.638Z,17.44
2022-10-11T14:35:57.120Z,17.32
2022-10-11T14:38:40.234Z,17.18
2022-10-11T14:41:23.269Z,17.07
2022-10-11T14:44:07.411Z,17.01
2022-10-11T14:46:54.531Z,16.82
2022-10-11T14:49:38.970Z,16.73
2022-10-11T14:52:23.428Z,16.61
2022-10-11T14:55:06.644Z,16.47
2022-10-11T14:57:49.670Z,16.45
2022-10-11T15:00:33.601Z,16.39
2022-10-11T15:03:16.665Z,16.20
2022-10-11T15:05:59.715Z,16.19
2022-10-11T15:08:44.142Z,16.10
2022-10-11T15:11:27.739Z,15.99
2022-10-11T15:14:10.862Z,15.99
2022-10-11T15:16:54.084Z,15.94
2022-10-11T15:19:37.437Z,15.84
2022-10-11T15:22:20.488Z,15.74
2022-10-11T15:25:05.809Z,15.70
2022-10-11T15:27:49.227Z,15.65
2022-10-11T15:30:38.462Z,15.65
2022-10-11T15:33:25.445Z,15.50
2022-10-11T15:36:12.498Z,15.37
2022-10-11T15:38:55.639Z,15.37
2022-10-11T15:41:40.106Z,15.39
2022-10-11T15:44:23.175Z,15.33
2022-10-11T15:47:06.471Z,15.23
2022-10-11T15:49:49.562Z,15.20
2022-10-11T15:52:32.577Z,15.18
2022-10-11T15:55:15.690Z,15.11
2022-10-11T15:58:01.234Z,15.03
2022-10-11T16:00:45.462Z,15.01
2022-10-11T16:03:30.886Z,15.03
2022-10-11T16:06:14.324Z,14.93
2022-10-11T16:08:57.382Z,14.89
2022-10-11T16:11:40.536Z,14.95
2022-10-11T16:14:25.160Z,14.94
2022-10-11T16:17:08.150Z,14.88
2022-10-11T16:19:51.671Z,14.87
2022-10-11T16:22:34.908Z,14.86
2022-10-11T16:25:18.208Z,14.74
2022-10-11T16:28:02.540Z,14.77
2022-10-11T16:30:47.058Z,14.74
2022-10-11T16:33:31.846Z,14.68
2022-10-11T16:36:36.150Z,14.70
2022-10-11T16:39:20.096Z,14.68
2022-10-11T16:42:03.212Z,14.82
2022-10-11T16:44:46.333Z,14.74
2022-10-11T16:47:30.767Z,14.78
2022-10-11T16:50:14.434Z,14.81
2022-10-11T16:52:57.552Z,14.85
2022-10-11T16:55:40.952Z,14.82
2022-10-11T16:58:23.985Z,14.86
2022-10-11T17:01:10.213Z,14.75
2022-10-11T17:03:55.837Z,14.69
2022-10-11T17:06:40.171Z,14.68
2022-10-11T17:09:26.775Z,14.74
2022-10-11T17:12:11.006Z,14.68
2022-10-11T17:14:54.251Z,14.69
2022-10-11T17:17:37.324Z,14.65
2022-10-11T17:20:21.777Z,14.61
2022-10-11T17:23:04.991Z,14.65
2022-10-11T17:25:48.677Z,14.62
2022-10-11T17:28:32.595Z,14.54
2022-10-11T17:31:15.960Z,14.46
2022-10-11T17:34:00.112Z,14.44
2022-10-11T17:36:44.879Z,14.63
2022-10-11T17:39:27.900Z,14.48
2022-10-11T17:42:11.210Z,14.45
2022-10-11T17:44:57.688Z,14.42
2022-10-11T17:47:40.737Z,14.53
2022-10-11T17:50:23.997Z,14.41
2022-10-11T17:53:08.681Z,14.40
2022-10-11T17:55:53.460Z,14.45
2022-10-11T17:58:36.937Z,14.42
2022-10-11T18:01:22.455Z,14.38
2022-10-11T18:04:07.280Z,14.39
2022-10-11T18:06:50.555Z,14.44
2022-10-11T18:09:35.127Z,14.41
2022-10-11T18:12:18.317Z,14.49
2022-10-11T18:15:01.296Z,14.53
2022-10-11T18:17:44.318Z,14.67
2022-10-11T18:20:27.716Z,14.54
2022-10-11T18:23:13.789Z,14.48
2022-10-11T18:25:58.439Z,14.53
2022-10-11T18:28:42.323Z,14.59
2022-10-11T18:31:26.979Z,14.54
2022-10-11T18:34:11.676Z,14.60
2022-10-11T18:36:54.737Z,14.54
2022-10-11T18:39:37.882Z,14.54
2022-10-11T18:42:22.648Z,14.58
2022-10-11T18:45:06.772Z,14.61
2022-10-11T18:47:51.352Z,14.60
2022-10-11T18:50:35.602Z,14.68
2022-10-11T18:53:18.696Z,14.63
2022-10-11T18:56:02.974Z,14.56
2022-10-11T18:58:48.343Z,14.59
2022-10-11T19:01:33.136Z,14.54
2022-10-11T19:04:17.142Z,14.57
2022-10-11T19:07:00.777Z,14.56
2022-10-11T19:09:44.048Z,14.52
2022-10-11T19:12:27.051Z,14.54
2022-10-11T19:15:11.990Z,14.47
2022-10-11T19:17:55.241Z,14.42
2022-10-11T19:20:38.570Z,14.41
2022-10-11T19:23:23.630Z,14.47
2022-10-11T19:26:07.597Z,14.49
2022-10-11T19:28:56.660Z,14.39
2022-10-11T19:31:45.109Z,14.37
2022-10-11T19:34:29.264Z,14.29
2022-10-11T19:37:13.456Z,14.23
2022-10-11T19:39:56.633Z,14.28
2022-10-11T19:42:39.679Z,14.22
2022-10-11T19:45:22.797Z,14.26
2022-10-11T19:48:07.351Z,14.23
2022-10-11T19:50:50.422Z,14.23
2022-10-11T19:53:33.864Z,14.22
2022-10-11T19:56:18.654Z,14.19
2022-10-11T19:59:02.358Z,14.23
2022-10-11T20:01:51.006Z,14.27
2022-10-11T20:04:51.928Z,14.16
2022-10-11T20:07:35.887Z,14.20
2022-10-11T20:10:19.546Z,14.16
2022-10-11T20:13:02.672Z,14.22
2022-10-11T20:15:45.889Z,14.26
2022-10-11T20:18:30.114Z,14.22
2022-10-11T20:21:16.758Z,14.28
2022-10-11T20:24:01.866Z,14.28
2022-10-11T20:26:44.850Z,14.19
2022-10-11T20:29:28.293Z,14.05
2022-10-11T20:32:11.483Z,13.94
2022-10-11T20:34:54.549Z,13.85
2022-10-11T20:37:39.351Z,13.97
2022-10-11T20:40:22.359Z,14.03
2022-10-11T20:43:05.490Z,14.00
2022-10-11T20:45:59.318Z,14.09
2022-10-11T20:48:43.182Z,14.11
2022-10-11T20:51:26.426Z,14.06
2022-10-11T20:54:11.981Z,13.97
2022-10-11T20:56:55.071Z,14.04
2022-10-11T20:59:38.142Z,14.04
2022-10-11T21:02:21.139Z,14.08
2022-10-11T21:05:04.183Z,14.12
2022-10-11T21:07:47.353Z,14.03
2022-10-11T21:10:32.142Z,14.03
2022-10-11T21:13:15.198Z,13.98
2022-10-11T21:16:04.726Z,13.92
2022-10-11T21:18:51.756Z,13.82
2022-10-11T21:21:34.978Z,13.81
2022-10-11T21:24:18.006Z,13.88
2022-10-11T21:27:02.474Z,13.83
2022-10-11T21:29:45.516Z,13.91
2022-10-11T21:32:28.607Z,13.99
2022-10-11T21:35:11.648Z,13.84
2022-10-11T21:37:55.796Z,13.87
2022-10-11T21:40:40.161Z,13.95
2022-10-11T21:43:24.882Z,13.85
2022-10-11T21:46:12.282Z,13.79
2022-10-11T21:48:55.889Z,13.89
2022-10-11T21:51:39.033Z,13.88
2022-10-11T21:54:22.162Z,13.89
2022-10-11T21:57:05.310Z,13.87
2022-10-11T21:59:49.988Z,13.83
2022-10-11T22:02:33.102Z,13.89
2022-10-11T22:05:16.745Z,13.91
2022-10-11T22:07:59.739Z,13.87
2022-10-11T22:10:44.983Z,13.88
2022-10-11T22:13:30.340Z,13.92
2022-10-11T22:16:15.381Z,13.85
2022-10-11T22:18:58.390Z,13.80
2022-10-11T22:21:44.890Z,13.74
2022-10-11T22:24:29.700Z,13.73
2022-10-11T22:27:12.940Z,13.67
2022-10-11T22:29:56.063Z,13.62
2022-10-11T22:32:40.485Z,13.67
2022-10-11T22:35:24.187Z,13.70
2022-10-11T22:38:07.744Z,13.71
2022-10-11T22:40:50.739Z,13.69
2022-10-11T22:43:33.828Z,13.75
2022-10-11T22:46:17.291Z,13.76
2022-10-11T22:49:01.810Z,13.76
2022-10-11T22:51:45.627Z,13.85
2022-10-11T22:54:28.666Z,13.85
2022-10-11T22:57:11.780Z,13.84
2022-10-11T22:59:54.799Z,13.86
2022-10-11T23:02:37.860Z,13.71
2022-10-11T23:05:22.372Z,13.80
2022-10-11T23:08:06.417Z,13.84
2022-10-11T23:10:49.443Z,13.56
2022-10-11T23:13:32.534Z,13.87
2022-10-11T23:16:15.602Z,13.87
2022-10-11T23:18:58.664Z,13.79
2022-10-11T23:21:43.133Z,13.85
2022-10-11T23:24:26.283Z,13.67
2022-10-11T23:27:09.287Z,13.55
2022-10-11T23:29:52.294Z,13.50
2022-10-11T23:32:35.590Z,13.53
2022-10-11T23:35:18.600Z,13.53
2022-10-11T23:38:03.063Z,13.45
2022-10-11T23:40:46.140Z,13.47
2022-10-11T23:43:29.196Z,13.35
2022-10-11T23:46:12.253Z,13.32
2022-10-11T23:48:55.330Z,13.18
2022-10-11T23:51:38.431Z,13.17
2022-10-11T23:54:22.926Z,13.13
2022-10-11T23:57:06.041Z,13.14
2022-10-11T23:59:49.185Z,13.05
